createdAt,value
2018-07-16T00:01:32.597Z,54.88
2018-07-16T00:04:02.286Z,54.72
2018-07-16T00:06:30.862Z,54.48
2018-07-16T00:08:59.707Z,55.09
2018-07-16T00:11:29.229Z,55.35
2018-07-16T00:13:59.414Z,55.49
2018-07-16T00:16:28.961Z,55.01
2018-07-16T00:18:57.821Z,55.16
2018-07-16T00:21:27.144Z,55.81
2018-07-16T00:23:55.608Z,56.47
2018-07-16T00:26:24.101Z,55.94
2018-07-16T00:28:52.644Z,55.92
2018-07-16T00:31:22.190Z,55.69
2018-07-16T00:33:50.729Z,55.78
2018-07-16T00:36:19.247Z,56.62
2018-07-16T00:38:48.473Z,56.91
2018-07-16T00:41:18.241Z,56.26
2018-07-16T00:43:46.715Z,56.62
2018-07-16T00:46:16.195Z,56.04
2018-07-16T00:48:45.556Z,56.34
2018-07-16T00:51:14.114Z,57.37
2018-07-16T00:53:42.721Z,57.01
2018-07-16T00:56:11.817Z,57.38
2018-07-16T00:58:40.357Z,57.32
2018-07-16T01:01:09.588Z,56.96
2018-07-16T01:03:38.677Z,56.97
2018-07-16T01:06:07.588Z,56.80
2018-07-16T01:08:36.760Z,57.67
2018-07-16T01:11:05.343Z,57.26
2018-07-16T01:13:35.298Z,57.80
2018-07-16T01:16:04.588Z,58.05
2018-07-16T01:18:33.780Z,58.40
2018-07-16T01:21:02.359Z,58.49
2018-07-16T01:23:30.869Z,58.73
2018-07-16T01:26:00.341Z,57.96
2018-07-16T01:28:28.901Z,57.86
2018-07-16T01:30:57.996Z,57.59
2018-07-16T01:33:27.131Z,58.71
2018-07-16T01:35:55.837Z,58.59
2018-07-16T01:38:24.404Z,58.91
2018-07-16T01:40:52.970Z,59.15
2018-07-16T01:43:21.621Z,58.68
2018-07-16T01:45:50.217Z,58.69
2018-07-16T01:48:21.715Z,59.59
2018-07-16T01:50:50.286Z,59.27
2018-07-16T01:53:19.203Z,59.38
2018-07-16T01:55:48.545Z,59.30
2018-07-16T01:58:17.036Z,59.92
2018-07-16T02:00:58.151Z,59.65
2018-07-16T02:03:28.614Z,60.14
2018-07-16T02:05:58.722Z,60.70
2018-07-16T02:08:27.885Z,59.75
2018-07-16T02:10:57.878Z,60.42
2018-07-16T02:13:27.294Z,60.33
2018-07-16T02:15:56.387Z,60.74
2018-07-16T02:18:25.653Z,59.84
2018-07-16T02:20:55.347Z,60.09
2018-07-16T02:23:23.986Z,60.43
2018-07-16T02:25:53.463Z,60.44
2018-07-16T02:28:24.162Z,60.72
2018-07-16T02:30:52.824Z,60.33
2018-07-16T02:33:22.051Z,60.72
2018-07-16T02:35:50.669Z,60.88
2018-07-16T02:38:19.848Z,61.11
2018-07-16T02:40:50.081Z,60.81
2018-07-16T02:43:18.806Z,61.50
2018-07-16T02:45:48.181Z,61.34
2018-07-16T02:48:16.950Z,61.33
2018-07-16T02:50:46.500Z,61.73
2018-07-16T02:53:15.454Z,61.90
2018-07-16T02:55:44.326Z,61.80
2018-07-16T02:58:13.411Z,61.84
2018-07-16T03:00:42.020Z,61.46
2018-07-16T03:03:12.046Z,61.61
2018-07-16T03:05:40.964Z,62.17
2018-07-16T03:08:09.554Z,62.25
2018-07-16T03:10:38.181Z,62.05
2018-07-16T03:13:07.180Z,62.07
2018-07-16T03:15:36.040Z,62.29
2018-07-16T03:18:04.908Z,62.81
2018-07-16T03:20:33.474Z,62.89
2018-07-16T03:23:02.014Z,62.14
2018-07-16T03:25:30.581Z,62.03
2018-07-16T03:27:59.307Z,62.28
2018-07-16T03:30:28.090Z,62.39
2018-07-16T03:32:56.578Z,62.42
2018-07-16T03:35:26.468Z,62.64
2018-07-16T03:37:54.989Z,62.89
2018-07-16T03:40:24.481Z,62.49
2018-07-16T03:42:53.035Z,62.68
2018-07-16T03:45:21.509Z,62.61
2018-07-16T03:47:51.301Z,62.64
2018-07-16T03:50:19.811Z,63.13
2018-07-16T03:52:48.488Z,62.44
2018-07-16T03:55:17.082Z,62.24
2018-07-16T03:57:46.772Z,63.10
2018-07-16T04:00:15.297Z,62.42
2018-07-16T04:02:44.857Z,63.33
2018-07-16T04:05:13.484Z,63.23
2018-07-16T04:07:42.328Z,62.86
2018-07-16T04:10:10.919Z,62.88
2018-07-16T04:12:39.629Z,62.77
2018-07-16T04:15:08.404Z,62.79
2018-07-16T04:17:37.072Z,62.69
2018-07-16T04:20:05.835Z,62.88
2018-07-16T04:22:34.330Z,62.95
2018-07-16T04:25:02.989Z,62.79
2018-07-16T04:27:32.316Z,62.54
2018-07-16T04:30:01.755Z,62.92
2018-07-16T04:32:30.719Z,63.48
2018-07-16T04:34:59.314Z,63.00
2018-07-16T04:37:28.514Z,63.45
2018-07-16T04:39:57.187Z,63.14
2018-07-16T04:42:26.523Z,63.07
2018-07-16T04:44:55.174Z,63.34
2018-07-16T04:47:23.905Z,63.01
2018-07-16T04:49:52.752Z,62.71
2018-07-16T04:52:22.173Z,63.60
2018-07-16T04:54:51.765Z,63.23
2018-07-16T04:57:20.592Z,62.88
2018-07-16T04:59:49.362Z,62.80
2018-07-16T05:02:17.933Z,63.23
2018-07-16T05:04:46.436Z,63.31
2018-07-16T05:07:15.071Z,62.89
2018-07-16T05:09:44.237Z,62.93
2018-07-16T05:12:12.879Z,63.15
2018-07-16T05:14:42.575Z,63.46
2018-07-16T05:17:11.553Z,62.87
2018-07-16T05:19:42.856Z,63.29
2018-07-16T05:22:11.931Z,62.67
2018-07-16T05:24:41.509Z,63.28
2018-07-16T05:27:10.067Z,62.84
2018-07-16T05:29:38.876Z,63.64
2018-07-16T05:32:11.799Z,63.83
2018-07-16T05:34:40.433Z,63.90
2018-07-16T05:37:09.632Z,63.92
2018-07-16T05:39:38.469Z,63.07
2018-07-16T05:42:07.188Z,63.61
2018-07-16T05:44:36.173Z,62.43
2018-07-16T05:47:08.017Z,62.79
2018-07-16T05:49:37.634Z,62.76
2018-07-16T05:52:06.301Z,62.26
2018-07-16T05:54:36.215Z,62.53
2018-07-16T05:57:04.765Z,62.11
2018-07-16T05:59:34.050Z,62.45
2018-07-16T06:02:02.646Z,62.74
2018-07-16T06:04:32.111Z,62.13
2018-07-16T06:07:01.039Z,62.46
2018-07-16T06:09:30.277Z,61.81
2018-07-16T06:12:00.017Z,61.74
2018-07-16T06:14:29.057Z,61.55
2018-07-16T06:16:57.952Z,61.82
2018-07-16T06:19:27.802Z,61.97
2018-07-16T06:21:57.671Z,61.63
2018-07-16T06:24:26.933Z,61.55
2018-07-16T06:26:55.717Z,61.77
2018-07-16T06:29:25.591Z,61.37
2018-07-16T06:31:54.935Z,62.15
2018-07-16T06:34:23.537Z,61.37
2018-07-16T06:36:53.196Z,60.28
2018-07-16T06:39:21.958Z,60.74
2018-07-16T06:41:50.503Z,59.54
2018-07-16T06:44:19.124Z,59.73
2018-07-16T06:46:47.725Z,59.61
2018-07-16T06:49:16.861Z,59.59
2018-07-16T06:51:45.606Z,59.34
2018-07-16T06:54:15.840Z,58.51
2018-07-16T06:56:45.285Z,58.72
2018-07-16T06:59:14.375Z,58.72
2018-07-16T07:01:44.629Z,57.94
2018-07-16T07:04:13.115Z,57.94
2018-07-16T07:06:42.604Z,58.06
2018-07-16T07:09:11.516Z,57.95
2018-07-16T07:11:40.705Z,57.11
2018-07-16T07:14:09.336Z,57.43
2018-07-16T07:16:40.837Z,57.05
2018-07-16T07:19:10.390Z,57.75
2018-07-16T07:21:39.134Z,57.30
2018-07-16T07:24:07.816Z,56.42
2018-07-16T07:26:36.458Z,56.25
2018-07-16T07:29:05.407Z,56.47
2018-07-16T07:31:34.447Z,55.12
2018-07-16T07:34:03.101Z,56.01
2018-07-16T07:36:31.656Z,55.33
2018-07-16T07:39:00.812Z,54.68
2018-07-16T07:41:30.573Z,54.52
2018-07-16T07:43:59.150Z,53.98
2018-07-16T07:46:27.728Z,54.67
2018-07-16T07:48:57.897Z,53.99
2018-07-16T07:51:28.678Z,54.17
2018-07-16T07:53:58.601Z,54.34
2018-07-16T07:56:27.168Z,54.18
2018-07-16T07:58:55.719Z,52.93
2018-07-16T08:01:24.645Z,52.34
2018-07-16T08:03:53.779Z,52.91
2018-07-16T08:06:22.349Z,53.13
2018-07-16T08:08:51.518Z,52.17
2018-07-16T08:11:20.957Z,52.42
2018-07-16T08:13:51.406Z,52.94
2018-07-16T08:16:20.312Z,52.63
2018-07-16T08:18:50.335Z,52.06
2018-07-16T08:21:19.865Z,52.48
2018-07-16T08:23:49.448Z,51.56
2018-07-16T08:26:18.079Z,51.41
2018-07-16T08:28:46.749Z,51.36
2018-07-16T08:31:15.554Z,51.00
2018-07-16T08:33:44.341Z,51.19
2018-07-16T08:36:13.489Z,51.50
2018-07-16T08:38:42.097Z,50.98
2018-07-16T08:41:11.009Z,51.06
2018-07-16T08:43:39.724Z,50.62
2018-07-16T08:46:08.425Z,49.69
2018-07-16T08:48:37.158Z,48.65
2018-07-16T08:51:05.861Z,48.93
2018-07-16T08:53:34.591Z,49.95
2018-07-16T08:56:03.554Z,50.31
2018-07-16T08:58:32.192Z,49.50
2018-07-16T09:01:02.163Z,49.95
2018-07-16T09:03:31.571Z,49.38
2018-07-16T09:06:05.575Z,49.39
2018-07-16T09:08:35.256Z,48.41
2018-07-16T09:11:04.012Z,48.57
2018-07-16T09:13:32.889Z,48.69
2018-07-16T09:16:02.445Z,48.95
2018-07-16T09:18:31.699Z,47.45
2018-07-16T09:21:01.428Z,47.59
2018-07-16T09:23:31.137Z,47.26
2018-07-16T09:26:00.063Z,47.48
2018-07-16T09:28:29.522Z,46.70
2018-07-16T09:30:59.254Z,46.27
2018-07-16T09:33:30.280Z,45.00
2018-07-16T09:35:59.052Z,46.12
2018-07-16T09:38:28.495Z,45.21
2018-07-16T09:40:57.493Z,45.65
2018-07-16T09:43:26.921Z,45.71
2018-07-16T09:45:56.686Z,45.22
2018-07-16T09:48:25.969Z,44.95
2018-07-16T09:50:55.240Z,44.16
2018-07-16T09:53:23.927Z,44.70
2018-07-16T09:55:55.171Z,42.75
2018-07-16T09:58:25.417Z,43.84
2018-07-16T10:00:59.326Z,43.74
2018-07-16T10:03:28.097Z,44.04
2018-07-16T10:05:56.843Z,44.17
2018-07-16T10:08:27.158Z,43.80
2018-07-16T10:10:56.499Z,43.76
2018-07-16T10:13:26.140Z,43.21
2018-07-16T10:15:54.791Z,42.71
2018-07-16T10:18:24.604Z,43.10
2018-07-16T10:20:53.254Z,43.18
2018-07-16T10:23:21.846Z,43.26
2018-07-16T10:25:50.890Z,42.54
2018-07-16T10:28:19.509Z,42.34
2018-07-16T10:30:49.818Z,40.70
2018-07-16T10:33:19.670Z,41.28
2018-07-16T10:35:48.564Z,42.43
2018-07-16T10:38:17.165Z,42.00
2018-07-16T10:40:45.851Z,41.73
2018-07-16T10:43:14.961Z,40.93
2018-07-16T10:45:43.497Z,41.87
2018-07-16T10:48:13.226Z,41.92
2018-07-16T10:50:42.077Z,42.01
2018-07-16T10:53:11.060Z,42.47
2018-07-16T10:55:40.056Z,41.34
2018-07-16T10:58:08.819Z,44.30
2018-07-16T11:00:37.445Z,42.11
2018-07-16T11:03:06.395Z,40.93
2018-07-16T11:05:35.091Z,41.74
2018-07-16T11:08:03.870Z,41.70
2018-07-16T11:10:32.596Z,41.28
2018-07-16T11:13:01.202Z,41.10
2018-07-16T11:15:30.631Z,38.17
2018-07-16T11:18:00.485Z,38.55
2018-07-16T11:20:30.020Z,39.87
2018-07-16T11:22:58.586Z,38.90
2018-07-16T11:25:28.056Z,38.91
2018-07-16T11:27:57.321Z,40.11
2018-07-16T11:30:26.809Z,38.91
2018-07-16T11:32:56.779Z,39.43
2018-07-16T11:35:26.485Z,39.43
2018-07-16T11:37:55.342Z,39.29
2018-07-16T11:40:23.945Z,39.72
2018-07-16T11:42:53.731Z,38.42
2018-07-16T11:45:23.093Z,37.20
2018-07-16T11:47:52.475Z,37.90
2018-07-16T11:50:21.782Z,37.86
2018-07-16T11:52:50.840Z,36.56
2018-07-16T11:55:20.435Z,37.67
2018-07-16T11:57:49.017Z,36.80
2018-07-16T12:00:18.340Z,38.54
2018-07-16T12:02:48.219Z,37.02
2018-07-16T12:05:17.873Z,38.17
2018-07-16T12:07:47.192Z,37.41
2018-07-16T12:10:16.582Z,36.38
2018-07-16T12:12:45.454Z,36.68
2018-07-16T12:15:14.221Z,36.52
2018-07-16T12:17:42.846Z,37.35
2018-07-16T12:20:11.646Z,35.82
2018-07-16T12:22:40.290Z,35.95
2018-07-16T12:25:08.806Z,35.47
2018-07-16T12:27:37.867Z,35.44
2018-07-16T12:30:06.579Z,35.15
2018-07-16T12:32:36.045Z,34.36
2018-07-16T12:35:06.541Z,35.35
2018-07-16T12:37:35.171Z,34.27
2018-07-16T12:40:04.253Z,34.11
2018-07-16T12:42:33.546Z,33.02
2018-07-16T12:45:02.637Z,32.62
2018-07-16T12:47:32.263Z,31.41
2018-07-16T12:50:01.035Z,32.69
2018-07-16T12:52:30.872Z,31.54
2018-07-16T12:55:00.468Z,31.62
2018-07-16T12:57:30.260Z,32.31
2018-07-16T12:59:59.319Z,31.06
2018-07-16T13:02:28.885Z,31.25
2018-07-16T13:04:57.461Z,31.46
2018-07-16T13:07:26.947Z,31.75
2018-07-16T13:09:56.214Z,31.44
2018-07-16T13:12:25.445Z,31.79
2018-07-16T13:14:55.143Z,31.93
2018-07-16T13:17:24.934Z,30.91
2018-07-16T13:19:54.745Z,30.21
2018-07-16T13:22:23.743Z,30.70
2018-07-16T13:24:52.918Z,30.68
2018-07-16T13:27:22.956Z,29.90
2018-07-16T13:29:52.045Z,30.92
2018-07-16T13:32:21.927Z,30.79
2018-07-16T13:34:51.551Z,29.62
2018-07-16T13:37:20.208Z,30.68
2018-07-16T13:39:49.031Z,29.77
2018-07-16T13:42:18.426Z,29.47
2018-07-16T13:44:47.312Z,28.85
2018-07-16T13:47:16.112Z,29.10
2018-07-16T13:49:45.610Z,30.41
2018-07-16T13:52:15.188Z,28.60
2018-07-16T13:54:45.940Z,28.75
2018-07-16T13:57:14.920Z,28.62
2018-07-16T13:59:43.512Z,28.96
2018-07-16T14:02:12.541Z,29.70
2018-07-16T14:04:41.195Z,29.73
2018-07-16T14:07:10.388Z,29.41
2018-07-16T14:09:38.922Z,29.07
2018-07-16T14:12:09.422Z,28.25
2018-07-16T14:14:39.079Z,29.54
2018-07-16T14:17:07.610Z,28.62
2018-07-16T14:19:36.069Z,29.11
2018-07-16T14:22:05.510Z,30.14
2018-07-16T14:24:34.603Z,29.87
2018-07-16T14:27:03.502Z,30.67
2018-07-16T14:29:32.102Z,29.73
2018-07-16T14:32:03.928Z,29.69
2018-07-16T14:34:32.744Z,28.79
2018-07-16T14:37:04.168Z,29.01
2018-07-16T14:39:33.034Z,28.16
2018-07-16T14:42:01.659Z,28.17
2018-07-16T14:44:30.291Z,28.98
2018-07-16T14:46:58.879Z,27.96
2018-07-16T14:49:27.466Z,28.68
2018-07-16T14:51:56.323Z,29.73
2018-07-16T14:54:24.983Z,28.14
2018-07-16T14:56:53.663Z,29.80
2018-07-16T14:59:22.726Z,29.26
2018-07-16T15:01:51.848Z,28.23
2018-07-16T15:04:20.377Z,29.29
2018-07-16T15:06:49.095Z,31.11
2018-07-16T15:09:17.538Z,31.32
2018-07-16T15:11:46.497Z,30.91
2018-07-16T15:14:16.059Z,30.24
2018-07-16T15:16:45.560Z,31.16
2018-07-16T15:19:14.848Z,29.51
2018-07-16T15:21:43.521Z,29.98
2018-07-16T15:24:12.305Z,29.29
2018-07-16T15:26:41.673Z,27.92
2018-07-16T15:29:11.409Z,27.90
2018-07-16T15:31:40.289Z,27.38
2018-07-16T15:34:09.011Z,27.46
2018-07-16T15:36:38.358Z,26.99
2018-07-16T15:39:07.759Z,27.03
2018-07-16T15:41:37.820Z,25.23
2018-07-16T15:44:06.382Z,25.88
2018-07-16T15:46:34.947Z,25.27
2018-07-16T15:49:03.503Z,25.99
2018-07-16T15:51:32.891Z,25.65
2018-07-16T15:54:01.526Z,25.49
2018-07-16T15:56:30.525Z,26.49
2018-07-16T15:59:00.183Z,26.50
2018-07-16T16:01:28.885Z,25.09
2018-07-16T16:03:57.648Z,26.62
2018-07-16T16:06:27.654Z,25.96
2018-07-16T16:08:56.538Z,26.92
2018-07-16T16:11:25.487Z,24.63
2018-07-16T16:13:54.997Z,25.88
2018-07-16T16:16:24.012Z,26.69
2018-07-16T16:18:52.499Z,25.58
2018-07-16T16:21:21.146Z,25.16
2018-07-16T16:23:50.620Z,26.14
2018-07-16T16:26:19.272Z,24.80
2018-07-16T16:28:47.952Z,25.00
2018-07-16T16:31:16.916Z,25.92
2018-07-16T16:33:45.644Z,26.20
2018-07-16T16:36:15.066Z,26.79
2018-07-16T16:38:43.603Z,25.76
2018-07-16T16:41:12.298Z,25.12
2018-07-16T16:43:40.916Z,25.47
2018-07-16T16:46:09.488Z,24.81
2018-07-16T16:48:37.997Z,25.54
2018-07-16T16:51:06.861Z,25.66
2018-07-16T16:53:35.529Z,25.44
2018-07-16T16:56:04.423Z,26.65
2018-07-16T16:58:33.873Z,27.60
2018-07-16T17:01:03.348Z,26.16
2018-07-16T17:03:32.953Z,26.46
2018-07-16T17:06:01.514Z,27.69
2018-07-16T17:08:30.193Z,27.06
2018-07-16T17:10:59.302Z,27.26
2018-07-16T17:13:27.796Z,26.33
2018-07-16T17:15:57.625Z,27.42
2018-07-16T17:18:26.468Z,27.90
2018-07-16T17:20:55.041Z,28.87
2018-07-16T17:23:23.651Z,29.24
2018-07-16T17:25:52.466Z,28.44
2018-07-16T17:28:21.136Z,28.95
2018-07-16T17:30:50.730Z,28.66
2018-07-16T17:33:19.447Z,29.13
2018-07-16T17:35:50.249Z,28.81
2018-07-16T17:38:19.672Z,29.66
2018-07-16T17:40:49.425Z,28.50
2018-07-16T17:43:18.161Z,29.07
2018-07-16T17:45:46.780Z,29.56
2018-07-16T17:48:15.442Z,29.82
2018-07-16T17:50:44.387Z,29.49
2018-07-16T17:53:12.899Z,29.41
2018-07-16T17:55:41.545Z,29.19
2018-07-16T17:58:10.790Z,30.62
2018-07-16T18:00:39.343Z,30.64
2018-07-16T18:03:10.232Z,30.87
2018-07-16T18:05:39.007Z,31.04
2018-07-16T18:08:07.960Z,32.07
2018-07-16T18:10:37.365Z,31.25
2018-07-16T18:13:06.100Z,31.96
2018-07-16T18:15:34.707Z,32.94
2018-07-16T18:18:04.573Z,31.91
2018-07-16T18:20:33.300Z,31.74
2018-07-16T18:23:01.865Z,32.34
2018-07-16T18:25:31.697Z,32.87
2018-07-16T18:28:00.463Z,33.07
2018-07-16T18:30:29.055Z,31.79
2018-07-16T18:32:57.755Z,32.84
2018-07-16T18:35:27.234Z,32.50
2018-07-16T18:37:55.865Z,33.26
2018-07-16T18:40:24.899Z,33.15
2018-07-16T18:42:54.188Z,33.12
2018-07-16T18:45:22.847Z,32.89
2018-07-16T18:47:52.007Z,34.09
2018-07-16T18:50:20.824Z,33.88
2018-07-16T18:52:49.507Z,34.41
2018-07-16T18:55:18.161Z,34.48
2018-07-16T18:57:47.469Z,34.42
2018-07-16T19:00:16.746Z,34.38
2018-07-16T19:02:45.489Z,35.89
2018-07-16T19:05:13.996Z,36.10
2018-07-16T19:07:43.244Z,35.86
2018-07-16T19:10:12.626Z,35.79
2018-07-16T19:12:41.737Z,37.29
2018-07-16T19:15:16.378Z,36.45
2018-07-16T19:17:47.087Z,37.07
2018-07-16T19:20:16.857Z,36.95
2018-07-16T19:22:47.145Z,37.45
2018-07-16T19:25:16.264Z,37.29
2018-07-16T19:27:45.182Z,37.81
2018-07-16T19:30:15.078Z,37.66
2018-07-16T19:32:45.909Z,38.70
2018-07-16T19:35:15.127Z,39.33
2018-07-16T19:37:43.731Z,39.04
2018-07-16T19:40:13.721Z,39.83
2018-07-16T19:42:42.569Z,39.11
2018-07-16T19:45:11.362Z,39.89
2018-07-16T19:47:40.098Z,40.92
2018-07-16T19:50:08.828Z,40.39
2018-07-16T19:52:38.602Z,41.03
2018-07-16T19:55:07.313Z,41.61
2018-07-16T19:57:36.938Z,41.56
2018-07-16T20:00:06.668Z,42.08
2018-07-16T20:02:36.080Z,42.32
2018-07-16T20:05:04.927Z,41.79
2018-07-16T20:07:34.049Z,42.00
2018-07-16T20:10:02.990Z,43.09
2018-07-16T20:12:33.283Z,43.39
2018-07-16T20:15:02.809Z,42.54
2018-07-16T20:17:32.024Z,42.99
2018-07-16T20:20:00.890Z,42.91
2018-07-16T20:22:29.923Z,43.30
2018-07-16T20:24:58.955Z,43.87
2018-07-16T20:27:27.805Z,44.71
2018-07-16T20:29:56.390Z,44.24
2018-07-16T20:32:25.599Z,44.62
2018-07-16T20:34:54.597Z,44.49
2018-07-16T20:37:23.320Z,44.96
2018-07-16T20:39:51.976Z,45.30
2018-07-16T20:42:20.886Z,44.93
2018-07-16T20:44:50.097Z,45.29
2018-07-16T20:47:19.424Z,45.66
2018-07-16T20:49:49.261Z,45.02
2018-07-16T20:52:21.327Z,45.60
2018-07-16T20:54:51.287Z,45.17
2018-07-16T20:57:19.957Z,45.51
2018-07-16T20:59:49.996Z,46.04
2018-07-16T21:02:19.068Z,46.30
2018-07-16T21:04:47.740Z,46.98
2018-07-16T21:07:17.823Z,46.90
2018-07-16T21:09:46.401Z,47.80
2018-07-16T21:12:15.209Z,47.13
2018-07-16T21:14:44.218Z,47.34
2018-07-16T21:17:12.829Z,47.50
2018-07-16T21:19:42.207Z,47.61
2018-07-16T21:22:10.839Z,48.03
2018-07-16T21:24:40.444Z,48.37
2018-07-16T21:27:09.008Z,48.35
2018-07-16T21:29:39.676Z,48.88
2018-07-16T21:32:08.228Z,48.61
2018-07-16T21:34:36.979Z,49.46
2018-07-16T21:37:05.624Z,49.73
2018-07-16T21:39:34.814Z,48.95
2018-07-16T21:42:03.680Z,48.80
2018-07-16T21:44:32.202Z,49.82
2018-07-16T21:47:00.725Z,49.67
2018-07-16T21:49:29.549Z,49.27
2018-07-16T21:51:58.235Z,49.36
2018-07-16T21:54:27.765Z,49.22
2018-07-16T21:56:56.325Z,49.41
2018-07-16T21:59:25.275Z,49.19
2018-07-16T22:01:53.920Z,49.13
2018-07-16T22:04:22.611Z,48.93
2018-07-16T22:06:51.322Z,48.73
2018-07-16T22:09:20.135Z,48.54
2018-07-16T22:11:49.902Z,47.71
2018-07-16T22:14:19.030Z,47.98
2018-07-16T22:16:47.916Z,48.00
2018-07-16T22:19:16.472Z,48.11
2018-07-16T22:21:45.416Z,48.10
2018-07-16T22:24:14.037Z,48.56
2018-07-16T22:26:42.527Z,48.65
2018-07-16T22:29:11.038Z,48.15
2018-07-16T22:31:39.538Z,48.30
2018-07-16T22:34:08.708Z,48.20
2018-07-16T22:36:37.295Z,48.48
2018-07-16T22:39:08.125Z,47.83
2018-07-16T22:41:37.209Z,48.68
2018-07-16T22:44:05.828Z,48.05
2018-07-16T22:46:34.464Z,48.90
2018-07-16T22:49:03.961Z,48.86
2018-07-16T22:51:32.972Z,48.86
2018-07-16T22:54:01.495Z,48.60
2018-07-16T22:56:31.682Z,49.00
2018-07-16T22:59:00.692Z,49.05
2018-07-16T23:01:29.335Z,48.93
2018-07-16T23:03:57.966Z,48.76
2018-07-16T23:06:26.497Z,49.18
2018-07-16T23:08:55.099Z,49.05
2018-07-16T23:11:23.654Z,49.98
2018-07-16T23:13:52.429Z,49.10
2018-07-16T23:16:21.005Z,49.85
2018-07-16T23:18:50.404Z,50.15
2018-07-16T23:21:19.039Z,49.71
2018-07-16T23:23:47.554Z,49.95
2018-07-16T23:26:16.190Z,50.30
2018-07-16T23:28:45.063Z,50.81
2018-07-16T23:31:13.621Z,50.47
2018-07-16T23:33:42.204Z,50.04
2018-07-16T23:36:10.803Z,51.44
2018-07-16T23:38:39.317Z,50.81
2018-07-16T23:41:08.452Z,51.52
2018-07-16T23:43:36.902Z,51.15
2018-07-16T23:46:05.549Z,51.00
2018-07-16T23:48:34.125Z,51.74
2018-07-16T23:51:02.913Z,51.11
2018-07-16T23:53:31.568Z,51.29
2018-07-16T23:56:00.155Z,50.82
2018-07-16T23:58:28.693Z,51.66
